sensor_id;sensor_type;location;lat;lon;timestamp;P1;durP1;ratioP1;P2;durP2;ratioP2
75506;SDS011;64086;43.220;27.878;2023-07-08T00:00:43;7.18;;;5.88;;
75506;SDS011;64086;43.220;27.878;2023-07-08T00:03:10;6.70;;;5.50;;
75506;SDS011;64086;43.220;27.878;2023-07-08T00:05:36;6.78;;;5.55;;
75506;SDS011;64086;43.220;27.878;2023-07-08T00:08:01;6.32;;;5.72;;
75506;SDS011;64086;43.220;27.878;2023-07-08T00:10:27;6.35;;;5.78;;
75506;SDS011;64086;43.220;27.878;2023-07-08T00:12:55;6.95;;;6.15;;
75506;SDS011;64086;43.220;27.878;2023-07-08T00:15:22;5.88;;;5.28;;
75506;SDS011;64086;43.220;27.878;2023-07-08T00:17:52;6.60;;;5.75;;
75506;SDS011;64086;43.220;27.878;2023-07-08T00:23:03;6.45;;;5.85;;
75506;SDS011;64086;43.220;27.878;2023-07-08T00:25:29;6.72;;;6.00;;
75506;SDS011;64086;43.220;27.878;2023-07-08T00:27:55;6.50;;;5.90;;
75506;SDS011;64086;43.220;27.878;2023-07-08T00:30:28;6.07;;;5.47;;
75506;SDS011;64086;43.220;27.878;2023-07-08T00:32:55;6.93;;;5.93;;
75506;SDS011;64086;43.220;27.878;2023-07-08T00:35:37;6.60;;;6.00;;
75506;SDS011;64086;43.220;27.878;2023-07-08T00:41:16;6.97;;;5.70;;
75506;SDS011;64086;43.220;27.878;2023-07-08T00:51:52;6.20;;;5.60;;
75506;SDS011;64086;43.220;27.878;2023-07-08T00:54:18;8.07;;;5.47;;
75506;SDS011;64086;43.220;27.878;2023-07-08T00:56:49;6.50;;;5.90;;
75506;SDS011;64086;43.220;27.878;2023-07-08T00:59:29;6.82;;;6.20;;
75506;SDS011;64086;43.220;27.878;2023-07-08T01:01:57;6.22;;;5.63;;
75506;SDS011;64086;43.220;27.878;2023-07-08T01:06:56;7.22;;;5.88;;
75506;SDS011;64086;43.220;27.878;2023-07-08T01:09:27;6.40;;;5.80;;
75506;SDS011;64086;43.220;27.878;2023-07-08T01:11:54;6.68;;;5.93;;
75506;SDS011;64086;43.220;27.878;2023-07-08T01:14:22;6.38;;;5.78;;
75506;SDS011;64086;43.220;27.878;2023-07-08T01:16:51;7.53;;;6.00;;
75506;SDS011;64086;43.220;27.878;2023-07-08T01:19:17;6.15;;;5.55;;
75506;SDS011;64086;43.220;27.878;2023-07-08T01:24:19;6.95;;;5.78;;
75506;SDS011;64086;43.220;27.878;2023-07-08T01:26:45;5.82;;;5.22;;
75506;SDS011;64086;43.220;27.878;2023-07-08T01:29:11;6.25;;;5.65;;
75506;SDS011;64086;43.220;27.878;2023-07-08T01:31:36;6.45;;;5.72;;
75506;SDS011;64086;43.220;27.878;2023-07-08T01:34:02;5.80;;;5.25;;
75506;SDS011;64086;43.220;27.878;2023-07-08T01:36:30;6.53;;;5.72;;
75506;SDS011;64086;43.220;27.878;2023-07-08T01:38:56;6.53;;;5.80;;
75506;SDS011;64086;43.220;27.878;2023-07-08T01:41:22;5.90;;;5.30;;
75506;SDS011;64086;43.220;27.878;2023-07-08T01:43:47;6.82;;;5.60;;
75506;SDS011;64086;43.220;27.878;2023-07-08T01:46:23;6.15;;;5.55;;
75506;SDS011;64086;43.220;27.878;2023-07-08T01:48:51;6.30;;;5.70;;
75506;SDS011;64086;43.220;27.878;2023-07-08T01:51:19;9.73;;;6.00;;
75506;SDS011;64086;43.220;27.878;2023-07-08T01:53:45;6.10;;;5.50;;
75506;SDS011;64086;43.220;27.878;2023-07-08T01:56:11;5.68;;;5.18;;
75506;SDS011;64086;43.220;27.878;2023-07-08T01:58:37;6.32;;;5.72;;
75506;SDS011;64086;43.220;27.878;2023-07-08T02:01:03;6.13;;;5.30;;
75506;SDS011;64086;43.220;27.878;2023-07-08T02:03:29;6.25;;;5.65;;
75506;SDS011;64086;43.220;27.878;2023-07-08T02:05:54;6.05;;;5.22;;
75506;SDS011;64086;43.220;27.878;2023-07-08T02:08:20;6.15;;;5.55;;
75506;SDS011;64086;43.220;27.878;2023-07-08T02:10:48;6.25;;;5.65;;
75506;SDS011;64086;43.220;27.878;2023-07-08T02:13:16;6.53;;;5.80;;
75506;SDS011;64086;43.220;27.878;2023-07-08T02:15:41;8.50;;;5.30;;
75506;SDS011;64086;43.220;27.878;2023-07-08T02:18:07;5.90;;;5.30;;
75506;SDS011;64086;43.220;27.878;2023-07-08T02:20:32;6.60;;;5.43;;
75506;SDS011;64086;43.220;27.878;2023-07-08T02:22:57;6.75;;;5.90;;
75506;SDS011;64086;43.220;27.878;2023-07-08T02:25:23;6.20;;;5.63;;
75506;SDS011;64086;43.220;27.878;2023-07-08T02:27:48;5.75;;;5.25;;
75506;SDS011;64086;43.220;27.878;2023-07-08T02:30:14;6.13;;;5.53;;
75506;SDS011;64086;43.220;27.878;2023-07-08T02:32:40;6.82;;;5.32;;
75506;SDS011;64086;43.220;27.878;2023-07-08T02:35:06;6.35;;;5.70;;
75506;SDS011;64086;43.220;27.878;2023-07-08T02:37:33;5.60;;;4.90;;
75506;SDS011;64086;43.220;27.878;2023-07-08T02:39:58;7.60;;;5.40;;
75506;SDS011;64086;43.220;27.878;2023-07-08T02:42:24;6.47;;;4.93;;
75506;SDS011;64086;43.220;27.878;2023-07-08T02:44:49;5.60;;;5.10;;
75506;SDS011;64086;43.220;27.878;2023-07-08T02:47:15;7.75;;;5.35;;
75506;SDS011;64086;43.220;27.878;2023-07-08T02:49:40;6.18;;;5.00;;
75506;SDS011;64086;43.220;27.878;2023-07-08T02:52:06;6.80;;;5.00;;
75506;SDS011;64086;43.220;27.878;2023-07-08T02:54:31;6.88;;;5.05;;
75506;SDS011;64086;43.220;27.878;2023-07-08T02:56:57;5.68;;;5.13;;
75506;SDS011;64086;43.220;27.878;2023-07-08T02:59:22;6.22;;;5.10;;
75506;SDS011;64086;43.220;27.878;2023-07-08T03:01:48;5.75;;;5.22;;
75506;SDS011;64086;43.220;27.878;2023-07-08T03:04:15;6.35;;;5.50;;
75506;SDS011;64086;43.220;27.878;2023-07-08T03:06:41;6.43;;;5.07;;
75506;SDS011;64086;43.220;27.878;2023-07-08T03:09:10;5.32;;;4.72;;
75506;SDS011;64086;43.220;27.878;2023-07-08T03:11:37;6.18;;;5.05;;
75506;SDS011;64086;43.220;27.878;2023-07-08T03:14:03;6.38;;;5.38;;
75506;SDS011;64086;43.220;27.878;2023-07-08T03:16:28;5.68;;;5.13;;
75506;SDS011;64086;43.220;27.878;2023-07-08T03:18:54;5.35;;;4.80;;
75506;SDS011;64086;43.220;27.878;2023-07-08T03:21:20;5.57;;;5.03;;
75506;SDS011;64086;43.220;27.878;2023-07-08T03:23:47;7.63;;;5.10;;
75506;SDS011;64086;43.220;27.878;2023-07-08T03:26:14;5.88;;;5.20;;
75506;SDS011;64086;43.220;27.878;2023-07-08T03:28:41;6.68;;;5.40;;
75506;SDS011;64086;43.220;27.878;2023-07-08T03:31:08;6.00;;;5.38;;
75506;SDS011;64086;43.220;27.878;2023-07-08T03:33:34;5.75;;;4.90;;
75506;SDS011;64086;43.220;27.878;2023-07-08T03:36:01;7.22;;;5.38;;
75506;SDS011;64086;43.220;27.878;2023-07-08T03:38:27;6.55;;;5.35;;
75506;SDS011;64086;43.220;27.878;2023-07-08T03:40:52;7.20;;;5.28;;
75506;SDS011;64086;43.220;27.878;2023-07-08T03:43:17;7.05;;;5.47;;
75506;SDS011;64086;43.220;27.878;2023-07-08T03:45:43;6.13;;;5.47;;
75506;SDS011;64086;43.220;27.878;2023-07-08T03:48:12;5.70;;;5.15;;
75506;SDS011;64086;43.220;27.878;2023-07-08T03:50:38;6.53;;;5.40;;
75506;SDS011;64086;43.220;27.878;2023-07-08T03:53:04;6.40;;;5.47;;
75506;SDS011;64086;43.220;27.878;2023-07-08T03:55:30;6.25;;;5.65;;
75506;SDS011;64086;43.220;27.878;2023-07-08T03:57:55;7.45;;;5.93;;
75506;SDS011;64086;43.220;27.878;2023-07-08T04:00:21;6.57;;;5.68;;
75506;SDS011;64086;43.220;27.878;2023-07-08T04:02:47;6.70;;;5.90;;
75506;SDS011;64086;43.220;27.878;2023-07-08T04:05:19;6.10;;;5.50;;
75506;SDS011;64086;43.220;27.878;2023-07-08T04:07:46;6.38;;;5.78;;
75506;SDS011;64086;43.220;27.878;2023-07-08T04:10:12;6.82;;;6.22;;
75506;SDS011;64086;43.220;27.878;2023-07-08T04:12:37;7.97;;;6.20;;
75506;SDS011;64086;43.220;27.878;2023-07-08T04:15:03;6.90;;;6.20;;
75506;SDS011;64086;43.220;27.878;2023-07-08T04:17:30;8.75;;;6.00;;
75506;SDS011;64086;43.220;27.878;2023-07-08T04:19:55;6.80;;;6.20;;
75506;SDS011;64086;43.220;27.878;2023-07-08T04:22:28;7.45;;;6.18;;
75506;SDS011;64086;43.220;27.878;2023-07-08T04:24:54;7.55;;;6.05;;
75506;SDS011;64086;43.220;27.878;2023-07-08T04:27:20;6.80;;;6.20;;
75506;SDS011;64086;43.220;27.878;2023-07-08T04:29:45;8.07;;;6.25;;
75506;SDS011;64086;43.220;27.878;2023-07-08T04:32:11;7.38;;;6.30;;
75506;SDS011;64086;43.220;27.878;2023-07-08T04:34:36;6.63;;;6.00;;
75506;SDS011;64086;43.220;27.878;2023-07-08T04:37:02;19.10;;;7.03;;
75506;SDS011;64086;43.220;27.878;2023-07-08T04:39:29;12.40;;;6.95;;
75506;SDS011;64086;43.220;27.878;2023-07-08T04:41:55;7.55;;;6.88;;
75506;SDS011;64086;43.220;27.878;2023-07-08T04:44:21;7.13;;;6.43;;
75506;SDS011;64086;43.220;27.878;2023-07-08T04:46:51;7.38;;;6.38;;
75506;SDS011;64086;43.220;27.878;2023-07-08T04:49:19;7.30;;;6.60;;
75506;SDS011;64086;43.220;27.878;2023-07-08T04:51:45;7.90;;;7.10;;
75506;SDS011;64086;43.220;27.878;2023-07-08T04:54:11;7.43;;;6.72;;
75506;SDS011;64086;43.220;27.878;2023-07-08T04:59:14;9.30;;;7.18;;
75506;SDS011;64086;43.220;27.878;2023-07-08T05:01:40;8.05;;;7.22;;
75506;SDS011;64086;43.220;27.878;2023-07-08T05:04:06;9.20;;;6.97;;
75506;SDS011;64086;43.220;27.878;2023-07-08T05:06:33;7.80;;;6.97;;
75506;SDS011;64086;43.220;27.878;2023-07-08T05:08:59;7.68;;;6.80;;
75506;SDS011;64086;43.220;27.878;2023-07-08T05:11:24;7.85;;;6.55;;
75506;SDS011;64086;43.220;27.878;2023-07-08T05:13:50;8.52;;;6.80;;
75506;SDS011;64086;43.220;27.878;2023-07-08T05:16:16;7.97;;;6.78;;
75506;SDS011;64086;43.220;27.878;2023-07-08T05:18:41;8.80;;;7.25;;
75506;SDS011;64086;43.220;27.878;2023-07-08T05:21:07;8.25;;;7.03;;
75506;SDS011;64086;43.220;27.878;2023-07-08T05:23:33;7.43;;;6.78;;
75506;SDS011;64086;43.220;27.878;2023-07-08T05:26:00;7.95;;;7.05;;
75506;SDS011;64086;43.220;27.878;2023-07-08T05:28:26;6.72;;;6.13;;
75506;SDS011;64086;43.220;27.878;2023-07-08T05:30:52;7.38;;;6.10;;
75506;SDS011;64086;43.220;27.878;2023-07-08T05:33:20;8.98;;;6.75;;
75506;SDS011;64086;43.220;27.878;2023-07-08T05:35:45;9.35;;;7.00;;
75506;SDS011;64086;43.220;27.878;2023-07-08T05:38:11;7.78;;;6.25;;
75506;SDS011;64086;43.220;27.878;2023-07-08T05:40:36;7.32;;;6.30;;
75506;SDS011;64086;43.220;27.878;2023-07-08T05:43:01;7.32;;;6.38;;
75506;SDS011;64086;43.220;27.878;2023-07-08T05:45:27;6.78;;;5.93;;
75506;SDS011;64086;43.220;27.878;2023-07-08T05:47:52;7.20;;;5.78;;
75506;SDS011;64086;43.220;27.878;2023-07-08T05:50:18;8.07;;;5.88;;
75506;SDS011;64086;43.220;27.878;2023-07-08T05:52:43;6.95;;;5.95;;
75506;SDS011;64086;43.220;27.878;2023-07-08T05:55:09;7.15;;;6.40;;
75506;SDS011;64086;43.220;27.878;2023-07-08T05:57:34;7.10;;;5.32;;
75506;SDS011;64086;43.220;27.878;2023-07-08T06:00:00;7.07;;;5.93;;
75506;SDS011;64086;43.220;27.878;2023-07-08T06:02:25;7.35;;;6.03;;
75506;SDS011;64086;43.220;27.878;2023-07-08T06:04:51;6.40;;;5.57;;
75506;SDS011;64086;43.220;27.878;2023-07-08T06:07:17;6.90;;;6.20;;
75506;SDS011;64086;43.220;27.878;2023-07-08T06:09:42;7.32;;;5.93;;
75506;SDS011;64086;43.220;27.878;2023-07-08T06:12:08;8.02;;;6.22;;
75506;SDS011;64086;43.220;27.878;2023-07-08T06:14:33;6.30;;;5.70;;
75506;SDS011;64086;43.220;27.878;2023-07-08T06:16:59;6.60;;;5.93;;
75506;SDS011;64086;43.220;27.878;2023-07-08T06:19:24;8.38;;;6.53;;
75506;SDS011;64086;43.220;27.878;2023-07-08T06:21:50;6.97;;;6.03;;
75506;SDS011;64086;43.220;27.878;2023-07-08T06:24:15;8.13;;;6.07;;
75506;SDS011;64086;43.220;27.878;2023-07-08T06:26:41;6.47;;;5.88;;
75506;SDS011;64086;43.220;27.878;2023-07-08T06:29:06;10.50;;;6.03;;
75506;SDS011;64086;43.220;27.878;2023-07-08T06:31:32;6.88;;;6.22;;
75506;SDS011;64086;43.220;27.878;2023-07-08T06:33:57;11.65;;;6.30;;
75506;SDS011;64086;43.220;27.878;2023-07-08T06:36:23;6.90;;;6.30;;
75506;SDS011;64086;43.220;27.878;2023-07-08T06:38:48;6.28;;;5.68;;
75506;SDS011;64086;43.220;27.878;2023-07-08T06:41:14;7.18;;;6.22;;
75506;SDS011;64086;43.220;27.878;2023-07-08T06:43:39;7.35;;;6.15;;
75506;SDS011;64086;43.220;27.878;2023-07-08T06:46:05;7.40;;;6.22;;
75506;SDS011;64086;43.220;27.878;2023-07-08T06:48:32;7.93;;;6.28;;
75506;SDS011;64086;43.220;27.878;2023-07-08T06:50:57;8.13;;;5.97;;
75506;SDS011;64086;43.220;27.878;2023-07-08T06:53:23;6.97;;;6.28;;
75506;SDS011;64086;43.220;27.878;2023-07-08T06:55:49;6.82;;;6.00;;
75506;SDS011;64086;43.220;27.878;2023-07-08T06:58:33;7.05;;;6.35;;
75506;SDS011;64086;43.220;27.878;2023-07-08T07:00:59;7.13;;;6.35;;
75506;SDS011;64086;43.220;27.878;2023-07-08T07:03:24;8.35;;;6.22;;
75506;SDS011;64086;43.220;27.878;2023-07-08T07:05:50;7.40;;;6.40;;
75506;SDS011;64086;43.220;27.878;2023-07-08T07:08:15;9.57;;;6.30;;
75506;SDS011;64086;43.220;27.878;2023-07-08T07:10:41;8.85;;;6.28;;
75506;SDS011;64086;43.220;27.878;2023-07-08T07:13:07;8.38;;;6.30;;
75506;SDS011;64086;43.220;27.878;2023-07-08T07:15:32;7.60;;;6.18;;
75506;SDS011;64086;43.220;27.878;2023-07-08T07:17:58;7.55;;;6.85;;
75506;SDS011;64086;43.220;27.878;2023-07-08T07:20:24;8.00;;;6.22;;
75506;SDS011;64086;43.220;27.878;2023-07-08T07:22:50;8.65;;;6.70;;
75506;SDS011;64086;43.220;27.878;2023-07-08T07:25:16;7.88;;;6.80;;
75506;SDS011;64086;43.220;27.878;2023-07-08T07:27:42;8.52;;;6.03;;
75506;SDS011;64086;43.220;27.878;2023-07-08T07:30:07;8.32;;;5.97;;
75506;SDS011;64086;43.220;27.878;2023-07-08T07:32:37;7.63;;;6.18;;
75506;SDS011;64086;43.220;27.878;2023-07-08T07:35:03;8.70;;;6.15;;
75506;SDS011;64086;43.220;27.878;2023-07-08T07:37:29;7.00;;;6.30;;
75506;SDS011;64086;43.220;27.878;2023-07-08T07:39:55;7.10;;;6.20;;
75506;SDS011;64086;43.220;27.878;2023-07-08T07:42:20;7.22;;;6.50;;
75506;SDS011;64086;43.220;27.878;2023-07-08T07:44:46;7.07;;;6.28;;
75506;SDS011;64086;43.220;27.878;2023-07-08T07:47:12;8.95;;;5.75;;
75506;SDS011;64086;43.220;27.878;2023-07-08T07:49:38;5.88;;;4.90;;
75506;SDS011;64086;43.220;27.878;2023-07-08T07:52:03;5.55;;;4.10;;
75506;SDS011;64086;43.220;27.878;2023-07-08T07:54:29;6.45;;;4.05;;
75506;SDS011;64086;43.220;27.878;2023-07-08T07:56:55;5.45;;;4.47;;
75506;SDS011;64086;43.220;27.878;2023-07-08T07:59:20;5.70;;;4.35;;
75506;SDS011;64086;43.220;27.878;2023-07-08T08:01:46;6.45;;;4.85;;
75506;SDS011;64086;43.220;27.878;2023-07-08T08:04:11;5.30;;;4.80;;
75506;SDS011;64086;43.220;27.878;2023-07-08T08:06:55;5.63;;;4.95;;
75506;SDS011;64086;43.220;27.878;2023-07-08T08:09:21;7.32;;;4.72;;
75506;SDS011;64086;43.220;27.878;2023-07-08T08:11:46;6.53;;;4.68;;
75506;SDS011;64086;43.220;27.878;2023-07-08T08:14:12;5.20;;;4.70;;
75506;SDS011;64086;43.220;27.878;2023-07-08T08:16:38;5.85;;;4.72;;
75506;SDS011;64086;43.220;27.878;2023-07-08T08:19:04;7.28;;;4.55;;
75506;SDS011;64086;43.220;27.878;2023-07-08T08:21:29;6.82;;;4.70;;
75506;SDS011;64086;43.220;27.878;2023-07-08T08:23:54;7.63;;;4.53;;
75506;SDS011;64086;43.220;27.878;2023-07-08T08:26:20;8.50;;;4.72;;
75506;SDS011;64086;43.220;27.878;2023-07-08T08:28:45;5.13;;;4.63;;
75506;SDS011;64086;43.220;27.878;2023-07-08T08:31:11;5.18;;;4.63;;
75506;SDS011;64086;43.220;27.878;2023-07-08T08:33:36;5.85;;;4.50;;
75506;SDS011;64086;43.220;27.878;2023-07-08T08:36:02;5.75;;;5.25;;
75506;SDS011;64086;43.220;27.878;2023-07-08T08:38:27;5.95;;;4.47;;
75506;SDS011;64086;43.220;27.878;2023-07-08T08:40:53;6.53;;;5.05;;
75506;SDS011;64086;43.220;27.878;2023-07-08T08:43:19;5.25;;;4.75;;
75506;SDS011;64086;43.220;27.878;2023-07-08T08:45:56;5.50;;;4.75;;
75506;SDS011;64086;43.220;27.878;2023-07-08T08:48:24;5.50;;;4.45;;
75506;SDS011;64086;43.220;27.878;2023-07-08T08:50:55;5.30;;;4.80;;
75506;SDS011;64086;43.220;27.878;2023-07-08T08:55:52;6.70;;;4.85;;
75506;SDS011;64086;43.220;27.878;2023-07-08T08:58:24;5.15;;;4.75;;
75506;SDS011;64086;43.220;27.878;2023-07-08T09:01:00;4.75;;;4.30;;
75506;SDS011;64086;43.220;27.878;2023-07-08T09:03:37;4.82;;;4.05;;
75506;SDS011;64086;43.220;27.878;2023-07-08T09:06:09;6.93;;;4.30;;
75506;SDS011;64086;43.220;27.878;2023-07-08T09:08:37;6.97;;;4.10;;
75506;SDS011;64086;43.220;27.878;2023-07-08T09:13:51;6.40;;;4.55;;
75506;SDS011;64086;43.220;27.878;2023-07-08T09:21:24;6.32;;;4.60;;
75506;SDS011;64086;43.220;27.878;2023-07-08T09:23:52;5.35;;;4.80;;
75506;SDS011;64086;43.220;27.878;2023-07-08T09:26:22;4.97;;;4.43;;
75506;SDS011;64086;43.220;27.878;2023-07-08T09:28:48;5.93;;;4.97;;
75506;SDS011;64086;43.220;27.878;2023-07-08T09:31:21;6.47;;;4.90;;
75506;SDS011;64086;43.220;27.878;2023-07-08T09:33:46;6.35;;;4.57;;
75506;SDS011;64086;43.220;27.878;2023-07-08T09:36:18;5.80;;;4.72;;
75506;SDS011;64086;43.220;27.878;2023-07-08T09:38:48;5.53;;;4.53;;
75506;SDS011;64086;43.220;27.878;2023-07-08T09:41:17;7.25;;;4.43;;
75506;SDS011;64086;43.220;27.878;2023-07-08T09:44:02;10.65;;;4.93;;
75506;SDS011;64086;43.220;27.878;2023-07-08T09:46:58;7.85;;;5.00;;
75506;SDS011;64086;43.220;27.878;2023-07-08T09:49:28;7.80;;;4.93;;
75506;SDS011;64086;43.220;27.878;2023-07-08T09:51:57;5.38;;;4.45;;
75506;SDS011;64086;43.220;27.878;2023-07-08T09:54:23;6.95;;;4.70;;
75506;SDS011;64086;43.220;27.878;2023-07-08T09:57:00;7.47;;;4.97;;
75506;SDS011;64086;43.220;27.878;2023-07-08T09:59:38;7.10;;;5.22;;
75506;SDS011;64086;43.220;27.878;2023-07-08T10:02:17;5.97;;;4.85;;
75506;SDS011;64086;43.220;27.878;2023-07-08T10:05:14;5.63;;;5.03;;
75506;SDS011;64086;43.220;27.878;2023-07-08T10:07:43;8.35;;;6.07;;
75506;SDS011;64086;43.220;27.878;2023-07-08T10:10:15;6.15;;;5.07;;
75506;SDS011;64086;43.220;27.878;2023-07-08T10:12:42;5.80;;;5.20;;
75506;SDS011;64086;43.220;27.878;2023-07-08T10:15:22;6.05;;;5.45;;
75506;SDS011;64086;43.220;27.878;2023-07-08T10:17:55;6.82;;;5.18;;
75506;SDS011;64086;43.220;27.878;2023-07-08T10:20:21;5.80;;;5.20;;
75506;SDS011;64086;43.220;27.878;2023-07-08T10:22:53;7.75;;;4.90;;
75506;SDS011;64086;43.220;27.878;2023-07-08T10:25:34;5.40;;;4.90;;
75506;SDS011;64086;43.220;27.878;2023-07-08T10:30:58;11.20;;;5.57;;
75506;SDS011;64086;43.220;27.878;2023-07-08T10:36:46;9.55;;;5.30;;
75506;SDS011;64086;43.220;27.878;2023-07-08T10:53:46;6.93;;;5.50;;
75506;SDS011;64086;43.220;27.878;2023-07-08T10:56:20;9.07;;;5.32;;
75506;SDS011;64086;43.220;27.878;2023-07-08T11:06:20;7.38;;;4.97;;
75506;SDS011;64086;43.220;27.878;2023-07-08T11:08:56;5.80;;;4.22;;
75506;SDS011;64086;43.220;27.878;2023-07-08T11:11:35;7.22;;;4.95;;
75506;SDS011;64086;43.220;27.878;2023-07-08T11:14:13;6.50;;;5.05;;
75506;SDS011;64086;43.220;27.878;2023-07-08T11:39:43;7.53;;;5.75;;
75506;SDS011;64086;43.220;27.878;2023-07-08T11:44:42;10.50;;;8.00;;
75506;SDS011;64086;43.220;27.878;2023-07-08T11:47:13;8.80;;;5.70;;
75506;SDS011;64086;43.220;27.878;2023-07-08T11:49:42;8.20;;;6.47;;
75506;SDS011;64086;43.220;27.878;2023-07-08T11:52:08;6.85;;;5.00;;
75506;SDS011;64086;43.220;27.878;2023-07-08T11:54:39;7.75;;;5.35;;
75506;SDS011;64086;43.220;27.878;2023-07-08T11:57:18;7.40;;;5.05;;
75506;SDS011;64086;43.220;27.878;2023-07-08T11:59:45;6.40;;;5.18;;
75506;SDS011;64086;43.220;27.878;2023-07-08T12:02:12;7.80;;;5.20;;
75506;SDS011;64086;43.220;27.878;2023-07-08T12:04:55;10.13;;;5.00;;
75506;SDS011;64086;43.220;27.878;2023-07-08T12:07:29;6.50;;;5.10;;
75506;SDS011;64086;43.220;27.878;2023-07-08T12:09:57;7.93;;;5.07;;
75506;SDS011;64086;43.220;27.878;2023-07-08T12:12:31;9.27;;;5.00;;
75506;SDS011;64086;43.220;27.878;2023-07-08T12:15:00;6.90;;;4.82;;
75506;SDS011;64086;43.220;27.878;2023-07-08T12:17:33;5.53;;;4.88;;
75506;SDS011;64086;43.220;27.878;2023-07-08T12:19:58;7.95;;;4.60;;
75506;SDS011;64086;43.220;27.878;2023-07-08T12:22:28;6.15;;;5.10;;
75506;SDS011;64086;43.220;27.878;2023-07-08T12:24:54;7.95;;;4.90;;
75506;SDS011;64086;43.220;27.878;2023-07-08T12:27:21;5.93;;;4.50;;
75506;SDS011;64086;43.220;27.878;2023-07-08T12:29:46;6.88;;;5.45;;
75506;SDS011;64086;43.220;27.878;2023-07-08T12:32:12;8.55;;;5.47;;
75506;SDS011;64086;43.220;27.878;2023-07-08T12:34:38;9.82;;;5.13;;
75506;SDS011;64086;43.220;27.878;2023-07-08T12:37:04;5.93;;;5.05;;
75506;SDS011;64086;43.220;27.878;2023-07-08T12:39:35;5.38;;;4.88;;
75506;SDS011;64086;43.220;27.878;2023-07-08T12:42:01;6.47;;;5.30;;
75506;SDS011;64086;43.220;27.878;2023-07-08T12:44:29;6.88;;;5.70;;
75506;SDS011;64086;43.220;27.878;2023-07-08T12:46:55;7.85;;;4.65;;
75506;SDS011;64086;43.220;27.878;2023-07-08T12:49:21;5.32;;;4.20;;
75506;SDS011;64086;43.220;27.878;2023-07-08T12:51:48;5.32;;;4.10;;
75506;SDS011;64086;43.220;27.878;2023-07-08T12:54:15;6.13;;;4.35;;
75506;SDS011;64086;43.220;27.878;2023-07-08T12:56:42;4.72;;;3.88;;
75506;SDS011;64086;43.220;27.878;2023-07-08T12:59:11;6.13;;;4.60;;
75506;SDS011;64086;43.220;27.878;2023-07-08T13:01:38;7.63;;;4.65;;
75506;SDS011;64086;43.220;27.878;2023-07-08T13:04:05;5.85;;;4.97;;
75506;SDS011;64086;43.220;27.878;2023-07-08T13:06:33;9.80;;;4.70;;
75506;SDS011;64086;43.220;27.878;2023-07-08T13:09:01;7.70;;;4.38;;
75506;SDS011;64086;43.220;27.878;2023-07-08T13:11:47;4.93;;;4.25;;
75506;SDS011;64086;43.220;27.878;2023-07-08T13:14:13;8.32;;;4.57;;
75506;SDS011;64086;43.220;27.878;2023-07-08T13:16:39;5.15;;;4.30;;
75506;SDS011;64086;43.220;27.878;2023-07-08T13:19:05;5.40;;;4.47;;
75506;SDS011;64086;43.220;27.878;2023-07-08T13:21:31;5.38;;;4.32;;
75506;SDS011;64086;43.220;27.878;2023-07-08T13:23:57;6.65;;;4.50;;
75506;SDS011;64086;43.220;27.878;2023-07-08T13:26:24;5.70;;;3.90;;
75506;SDS011;64086;43.220;27.878;2023-07-08T13:28:59;7.45;;;4.05;;
75506;SDS011;64086;43.220;27.878;2023-07-08T13:31:31;6.07;;;4.18;;
75506;SDS011;64086;43.220;27.878;2023-07-08T13:34:04;7.20;;;3.65;;
75506;SDS011;64086;43.220;27.878;2023-07-08T13:38:58;4.03;;;3.50;;
75506;SDS011;64086;43.220;27.878;2023-07-08T13:41:27;6.35;;;3.80;;
75506;SDS011;64086;43.220;27.878;2023-07-08T13:43:52;5.57;;;3.72;;
75506;SDS011;64086;43.220;27.878;2023-07-08T13:46:34;5.55;;;3.40;;
75506;SDS011;64086;43.220;27.878;2023-07-08T13:49:02;5.93;;;3.50;;
75506;SDS011;64086;43.220;27.878;2023-07-08T13:51:38;7.25;;;3.60;;
75506;SDS011;64086;43.220;27.878;2023-07-08T13:54:16;5.70;;;3.70;;
75506;SDS011;64086;43.220;27.878;2023-07-08T13:56:46;6.38;;;3.50;;
75506;SDS011;64086;43.220;27.878;2023-07-08T13:59:15;5.60;;;3.70;;
75506;SDS011;64086;43.220;27.878;2023-07-08T14:01:48;5.55;;;3.70;;
75506;SDS011;64086;43.220;27.878;2023-07-08T14:04:18;6.55;;;3.70;;
75506;SDS011;64086;43.220;27.878;2023-07-08T14:06:47;6.57;;;3.60;;
75506;SDS011;64086;43.220;27.878;2023-07-08T14:09:20;4.60;;;3.60;;
75506;SDS011;64086;43.220;27.878;2023-07-08T14:11:49;5.45;;;3.90;;
75506;SDS011;64086;43.220;27.878;2023-07-08T14:14:15;4.32;;;3.50;;
75506;SDS011;64086;43.220;27.878;2023-07-08T14:16:44;4.68;;;3.67;;
75506;SDS011;64086;43.220;27.878;2023-07-08T14:19:13;5.65;;;3.78;;
75506;SDS011;64086;43.220;27.878;2023-07-08T14:21:40;5.00;;;3.55;;
75506;SDS011;64086;43.220;27.878;2023-07-08T14:24:15;6.50;;;3.85;;
75506;SDS011;64086;43.220;27.878;2023-07-08T14:26:41;6.35;;;3.83;;
75506;SDS011;64086;43.220;27.878;2023-07-08T14:29:11;6.55;;;3.30;;
75506;SDS011;64086;43.220;27.878;2023-07-08T14:31:36;5.88;;;3.15;;
75506;SDS011;64086;43.220;27.878;2023-07-08T14:34:07;6.32;;;3.60;;
75506;SDS011;64086;43.220;27.878;2023-07-08T14:36:34;4.80;;;3.40;;
75506;SDS011;64086;43.220;27.878;2023-07-08T14:39:00;5.05;;;3.53;;
75506;SDS011;64086;43.220;27.878;2023-07-08T14:41:26;4.50;;;3.45;;
75506;SDS011;64086;43.220;27.878;2023-07-08T14:43:53;4.03;;;3.30;;
75506;SDS011;64086;43.220;27.878;2023-07-08T14:46:19;5.32;;;3.22;;
75506;SDS011;64086;43.220;27.878;2023-07-08T14:48:45;3.50;;;3.20;;
75506;SDS011;64086;43.220;27.878;2023-07-08T14:51:10;3.90;;;3.50;;
75506;SDS011;64086;43.220;27.878;2023-07-08T14:53:36;3.78;;;3.20;;
75506;SDS011;64086;43.220;27.878;2023-07-08T14:56:05;4.60;;;3.40;;
75506;SDS011;64086;43.220;27.878;2023-07-08T14:58:37;4.75;;;3.42;;
75506;SDS011;64086;43.220;27.878;2023-07-08T15:01:08;5.00;;;3.20;;
75506;SDS011;64086;43.220;27.878;2023-07-08T15:03:35;5.78;;;3.60;;
75506;SDS011;64086;43.220;27.878;2023-07-08T15:06:01;5.60;;;3.35;;
75506;SDS011;64086;43.220;27.878;2023-07-08T15:08:26;6.68;;;3.70;;
75506;SDS011;64086;43.220;27.878;2023-07-08T15:10:52;5.85;;;3.40;;
75506;SDS011;64086;43.220;27.878;2023-07-08T15:13:19;5.80;;;3.30;;
75506;SDS011;64086;43.220;27.878;2023-07-08T15:15:46;4.28;;;3.50;;
75506;SDS011;64086;43.220;27.878;2023-07-08T15:18:13;6.30;;;3.22;;
75506;SDS011;64086;43.220;27.878;2023-07-08T15:20:39;5.93;;;3.17;;
75506;SDS011;64086;43.220;27.878;2023-07-08T15:23:05;5.22;;;3.22;;
75506;SDS011;64086;43.220;27.878;2023-07-08T15:25:31;6.75;;;3.60;;
75506;SDS011;64086;43.220;27.878;2023-07-08T15:27:59;6.43;;;3.45;;
75506;SDS011;64086;43.220;27.878;2023-07-08T15:30:26;4.38;;;3.38;;
75506;SDS011;64086;43.220;27.878;2023-07-08T15:32:53;5.28;;;3.50;;
75506;SDS011;64086;43.220;27.878;2023-07-08T15:35:20;4.95;;;3.65;;
75506;SDS011;64086;43.220;27.878;2023-07-08T15:37:49;5.18;;;3.70;;
75506;SDS011;64086;43.220;27.878;2023-07-08T15:40:15;4.43;;;3.65;;
75506;SDS011;64086;43.220;27.878;2023-07-08T15:42:43;4.95;;;3.40;;
75506;SDS011;64086;43.220;27.878;2023-07-08T15:45:14;6.68;;;3.40;;
75506;SDS011;64086;43.220;27.878;2023-07-08T15:47:41;4.45;;;3.40;;
75506;SDS011;64086;43.220;27.878;2023-07-08T15:50:10;4.60;;;3.70;;
75506;SDS011;64086;43.220;27.878;2023-07-08T15:52:40;4.68;;;3.40;;
75506;SDS011;64086;43.220;27.878;2023-07-08T15:55:07;4.85;;;3.63;;
75506;SDS011;64086;43.220;27.878;2023-07-08T15:57:36;5.45;;;3.90;;
75506;SDS011;64086;43.220;27.878;2023-07-08T16:00:18;4.93;;;3.80;;
75506;SDS011;64086;43.220;27.878;2023-07-08T16:02:51;4.63;;;3.90;;
75506;SDS011;64086;43.220;27.878;2023-07-08T16:05:18;4.60;;;3.90;;